sensor_id;sensor_type;location;lat;lon;timestamp;P1;durP1;ratioP1;P2;durP2;ratioP2
60032;SDS011;45905;50.570;10.428;2023-11-18T00:00:04;3.17;;;2.53;;
60032;SDS011;45905;50.570;10.428;2023-11-18T00:02:38;3.10;;;2.37;;
60032;SDS011;45905;50.570;10.428;2023-11-18T00:05:09;6.70;;;4.30;;
60032;SDS011;45905;50.570;10.428;2023-11-18T00:07:37;3.40;;;1.57;;
60032;SDS011;45905;50.570;10.428;2023-11-18T00:10:05;2.90;;;2.53;;
60032;SDS011;45905;50.570;10.428;2023-11-18T00:12:35;3.17;;;2.70;;
60032;SDS011;45905;50.570;10.428;2023-11-18T00:15:03;1.83;;;1.73;;
60032;SDS011;45905;50.570;10.428;2023-11-18T00:17:31;3.43;;;2.63;;
60032;SDS011;45905;50.570;10.428;2023-11-18T00:19:59;2.10;;;1.77;;
60032;SDS011;45905;50.570;10.428;2023-11-18T00:22:29;2.00;;;1.80;;
60032;SDS011;45905;50.570;10.428;2023-11-18T00:24:57;4.60;;;3.83;;
60032;SDS011;45905;50.570;10.428;2023-11-18T00:27:24;1.40;;;1.30;;
60032;SDS011;45905;50.570;10.428;2023-11-18T00:29:52;4.00;;;3.33;;
60032;SDS011;45905;50.570;10.428;2023-11-18T00:32:19;1.27;;;1.10;;
60032;SDS011;45905;50.570;10.428;2023-11-18T00:34:47;6.30;;;2.47;;
60032;SDS011;45905;50.570;10.428;2023-11-18T00:37:15;3.00;;;2.00;;
60032;SDS011;45905;50.570;10.428;2023-11-18T00:39:43;6.53;;;3.63;;
60032;SDS011;45905;50.570;10.428;2023-11-18T00:42:11;1.40;;;1.17;;
60032;SDS011;45905;50.570;10.428;2023-11-18T00:44:38;3.77;;;2.83;;
60032;SDS011;45905;50.570;10.428;2023-11-18T00:47:06;2.60;;;2.13;;
60032;SDS011;45905;50.570;10.428;2023-11-18T00:49:34;1.83;;;1.00;;
60032;SDS011;45905;50.570;10.428;2023-11-18T00:52:02;4.47;;;3.23;;
60032;SDS011;45905;50.570;10.428;2023-11-18T00:54:30;3.00;;;1.57;;
60032;SDS011;45905;50.570;10.428;2023-11-18T00:56:58;3.03;;;2.10;;
60032;SDS011;45905;50.570;10.428;2023-11-18T00:59:26;1.20;;;0.90;;
60032;SDS011;45905;50.570;10.428;2023-11-18T01:01:53;1.40;;;1.10;;
60032;SDS011;45905;50.570;10.428;2023-11-18T01:04:21;4.03;;;2.73;;
60032;SDS011;45905;50.570;10.428;2023-11-18T01:06:48;3.70;;;2.23;;
60032;SDS011;45905;50.570;10.428;2023-11-18T01:09:17;9.23;;;2.80;;
60032;SDS011;45905;50.570;10.428;2023-11-18T01:11:46;1.43;;;1.17;;
60032;SDS011;45905;50.570;10.428;2023-11-18T01:14:33;3.13;;;2.40;;
60032;SDS011;45905;50.570;10.428;2023-11-18T01:17:02;6.63;;;2.27;;
60032;SDS011;45905;50.570;10.428;2023-11-18T01:19:32;3.10;;;1.83;;
60032;SDS011;45905;50.570;10.428;2023-11-18T01:22:02;4.60;;;2.80;;
60032;SDS011;45905;50.570;10.428;2023-11-18T01:24:32;2.07;;;1.83;;
60032;SDS011;45905;50.570;10.428;2023-11-18T01:27:00;2.37;;;1.40;;
60032;SDS011;45905;50.570;10.428;2023-11-18T01:29:28;6.83;;;3.23;;
60032;SDS011;45905;50.570;10.428;2023-11-18T01:31:56;2.43;;;2.13;;
60032;SDS011;45905;50.570;10.428;2023-11-18T01:34:23;4.50;;;3.10;;
60032;SDS011;45905;50.570;10.428;2023-11-18T01:36:52;2.97;;;2.03;;
60032;SDS011;45905;50.570;10.428;2023-11-18T01:39:19;1.20;;;0.90;;
60032;SDS011;45905;50.570;10.428;2023-11-18T01:41:47;4.03;;;2.90;;
60032;SDS011;45905;50.570;10.428;2023-11-18T01:44:15;1.33;;;1.13;;
60032;SDS011;45905;50.570;10.428;2023-11-18T01:46:46;1.60;;;1.10;;
60032;SDS011;45905;50.570;10.428;2023-11-18T01:49:14;5.67;;;2.93;;
60032;SDS011;45905;50.570;10.428;2023-11-18T01:51:42;1.20;;;1.00;;
60032;SDS011;45905;50.570;10.428;2023-11-18T01:54:12;2.10;;;1.20;;
60032;SDS011;45905;50.570;10.428;2023-11-18T01:56:46;3.93;;;2.50;;
60032;SDS011;45905;50.570;10.428;2023-11-18T01:59:15;2.17;;;1.67;;
60032;SDS011;45905;50.570;10.428;2023-11-18T02:01:51;1.50;;;1.13;;
60032;SDS011;45905;50.570;10.428;2023-11-18T02:04:20;1.57;;;1.30;;
60032;SDS011;45905;50.570;10.428;2023-11-18T02:06:48;1.67;;;1.30;;
60032;SDS011;45905;50.570;10.428;2023-11-18T02:09:18;2.60;;;1.73;;
60032;SDS011;45905;50.570;10.428;2023-11-18T02:14:49;1.13;;;1.00;;
60032;SDS011;45905;50.570;10.428;2023-11-18T02:17:19;2.43;;;1.60;;
60032;SDS011;45905;50.570;10.428;2023-11-18T02:19:51;7.20;;;2.37;;
60032;SDS011;45905;50.570;10.428;2023-11-18T02:22:19;4.13;;;2.67;;
60032;SDS011;45905;50.570;10.428;2023-11-18T02:24:48;1.93;;;1.73;;
60032;SDS011;45905;50.570;10.428;2023-11-18T02:27:16;3.57;;;2.50;;
60032;SDS011;45905;50.570;10.428;2023-11-18T02:29:46;1.70;;;1.30;;
60032;SDS011;45905;50.570;10.428;2023-11-18T02:32:25;9.00;;;3.00;;
60032;SDS011;45905;50.570;10.428;2023-11-18T02:37:53;3.17;;;2.30;;
60032;SDS011;45905;50.570;10.428;2023-11-18T02:40:29;2.10;;;1.90;;
60032;SDS011;45905;50.570;10.428;2023-11-18T02:43:03;3.00;;;1.77;;
60032;SDS011;45905;50.570;10.428;2023-11-18T02:45:32;3.57;;;1.27;;
60032;SDS011;45905;50.570;10.428;2023-11-18T02:48:03;4.73;;;3.03;;
60032;SDS011;45905;50.570;10.428;2023-11-18T02:50:34;3.60;;;2.83;;
60032;SDS011;45905;50.570;10.428;2023-11-18T02:53:06;1.53;;;1.20;;
60032;SDS011;45905;50.570;10.428;2023-11-18T02:55:36;3.20;;;2.27;;
60032;SDS011;45905;50.570;10.428;2023-11-18T02:58:03;3.47;;;2.20;;
60032;SDS011;45905;50.570;10.428;2023-11-18T03:00:33;12.40;;;2.90;;
60032;SDS011;45905;50.570;10.428;2023-11-18T03:03:00;3.43;;;2.60;;
60032;SDS011;45905;50.570;10.428;2023-11-18T03:05:30;2.80;;;2.27;;
60032;SDS011;45905;50.570;10.428;2023-11-18T03:07:57;1.57;;;1.47;;
60032;SDS011;45905;50.570;10.428;2023-11-18T03:10:25;4.73;;;3.10;;
60032;SDS011;45905;50.570;10.428;2023-11-18T03:12:53;1.20;;;1.03;;
60032;SDS011;45905;50.570;10.428;2023-11-18T03:15:21;3.87;;;2.63;;
60032;SDS011;45905;50.570;10.428;2023-11-18T03:17:50;1.60;;;1.30;;
60032;SDS011;45905;50.570;10.428;2023-11-18T03:20:19;1.67;;;1.30;;
60032;SDS011;45905;50.570;10.428;2023-11-18T03:22:50;4.83;;;2.50;;
60032;SDS011;45905;50.570;10.428;2023-11-18T03:25:19;5.53;;;3.10;;
60032;SDS011;45905;50.570;10.428;2023-11-18T03:27:50;2.17;;;1.63;;
60032;SDS011;45905;50.570;10.428;2023-11-18T03:30:21;1.53;;;1.10;;
60032;SDS011;45905;50.570;10.428;2023-11-18T03:32:48;4.70;;;2.67;;
60032;SDS011;45905;50.570;10.428;2023-11-18T03:35:15;2.00;;;1.57;;
60032;SDS011;45905;50.570;10.428;2023-11-18T03:37:43;5.40;;;2.83;;
60032;SDS011;45905;50.570;10.428;2023-11-18T03:40:12;4.03;;;2.40;;
60032;SDS011;45905;50.570;10.428;2023-11-18T03:42:41;2.67;;;2.03;;
60032;SDS011;45905;50.570;10.428;2023-11-18T03:45:09;5.47;;;2.90;;
60032;SDS011;45905;50.570;10.428;2023-11-18T03:47:37;1.87;;;1.40;;
60032;SDS011;45905;50.570;10.428;2023-11-18T03:50:05;2.53;;;1.80;;
60032;SDS011;45905;50.570;10.428;2023-11-18T03:52:37;4.60;;;2.90;;
60032;SDS011;45905;50.570;10.428;2023-11-18T03:55:05;1.70;;;1.37;;
60032;SDS011;45905;50.570;10.428;2023-11-18T03:57:33;1.70;;;1.50;;
60032;SDS011;45905;50.570;10.428;2023-11-18T04:00:00;4.77;;;3.00;;
60032;SDS011;45905;50.570;10.428;2023-11-18T04:02:35;2.20;;;1.40;;
60032;SDS011;45905;50.570;10.428;2023-11-18T04:05:03;1.30;;;0.97;;
60032;SDS011;45905;50.570;10.428;2023-11-18T04:07:31;3.40;;;2.07;;
60032;SDS011;45905;50.570;10.428;2023-11-18T04:09:58;5.17;;;3.57;;
60032;SDS011;45905;50.570;10.428;2023-11-18T04:12:26;3.63;;;2.60;;
60032;SDS011;45905;50.570;10.428;2023-11-18T04:14:54;4.20;;;2.73;;
60032;SDS011;45905;50.570;10.428;2023-11-18T04:17:21;1.60;;;1.20;;
60032;SDS011;45905;50.570;10.428;2023-11-18T04:19:48;13.03;;;3.33;;
60032;SDS011;45905;50.570;10.428;2023-11-18T04:22:16;2.20;;;1.40;;
60032;SDS011;45905;50.570;10.428;2023-11-18T04:24:45;1.90;;;1.30;;
60032;SDS011;45905;50.570;10.428;2023-11-18T04:27:12;2.67;;;1.47;;
60032;SDS011;45905;50.570;10.428;2023-11-18T04:29:40;3.30;;;1.67;;
60032;SDS011;45905;50.570;10.428;2023-11-18T04:32:07;6.70;;;3.23;;
60032;SDS011;45905;50.570;10.428;2023-11-18T04:34:35;16.73;;;6.93;;
60032;SDS011;45905;50.570;10.428;2023-11-18T04:37:04;1.93;;;1.73;;
60032;SDS011;45905;50.570;10.428;2023-11-18T04:39:32;6.60;;;3.23;;
60032;SDS011;45905;50.570;10.428;2023-11-18T04:42:00;6.90;;;1.60;;
60032;SDS011;45905;50.570;10.428;2023-11-18T04:44:28;5.13;;;4.07;;
60032;SDS011;45905;50.570;10.428;2023-11-18T04:46:57;4.00;;;2.30;;
60032;SDS011;45905;50.570;10.428;2023-11-18T04:49:26;1.50;;;1.30;;
60032;SDS011;45905;50.570;10.428;2023-11-18T04:51:53;3.13;;;1.90;;
60032;SDS011;45905;50.570;10.428;2023-11-18T04:54:21;1.93;;;1.40;;
60032;SDS011;45905;50.570;10.428;2023-11-18T04:56:48;3.70;;;3.50;;
60032;SDS011;45905;50.570;10.428;2023-11-18T04:59:16;7.53;;;4.40;;
60032;SDS011;45905;50.570;10.428;2023-11-18T05:01:44;1.40;;;1.27;;
60032;SDS011;45905;50.570;10.428;2023-11-18T05:04:12;4.77;;;3.17;;
60032;SDS011;45905;50.570;10.428;2023-11-18T05:06:39;6.87;;;2.50;;
60032;SDS011;45905;50.570;10.428;2023-11-18T05:09:07;1.87;;;1.47;;
60032;SDS011;45905;50.570;10.428;2023-11-18T05:11:35;6.93;;;3.83;;
60032;SDS011;45905;50.570;10.428;2023-11-18T05:14:02;2.47;;;1.50;;
60032;SDS011;45905;50.570;10.428;2023-11-18T05:16:30;7.23;;;4.20;;
60032;SDS011;45905;50.570;10.428;2023-11-18T05:18:58;5.27;;;3.43;;
60032;SDS011;45905;50.570;10.428;2023-11-18T05:21:25;1.70;;;1.30;;
60032;SDS011;45905;50.570;10.428;2023-11-18T05:23:53;5.57;;;3.23;;
60032;SDS011;45905;50.570;10.428;2023-11-18T05:26:20;2.30;;;2.00;;
60032;SDS011;45905;50.570;10.428;2023-11-18T05:28:47;1.77;;;1.57;;
60032;SDS011;45905;50.570;10.428;2023-11-18T05:31:16;1.20;;;0.97;;
60032;SDS011;45905;50.570;10.428;2023-11-18T05:33:44;2.27;;;1.87;;
60032;SDS011;45905;50.570;10.428;2023-11-18T05:36:18;1.40;;;1.30;;
60032;SDS011;45905;50.570;10.428;2023-11-18T05:38:54;1.47;;;1.10;;
60032;SDS011;45905;50.570;10.428;2023-11-18T05:41:21;4.13;;;2.70;;
60032;SDS011;45905;50.570;10.428;2023-11-18T05:43:54;2.13;;;1.47;;
60032;SDS011;45905;50.570;10.428;2023-11-18T05:46:25;1.40;;;1.30;;
60032;SDS011;45905;50.570;10.428;2023-11-18T05:48:56;3.13;;;2.23;;
60032;SDS011;45905;50.570;10.428;2023-11-18T05:51:27;5.30;;;3.87;;
60032;SDS011;45905;50.570;10.428;2023-11-18T05:53:55;4.83;;;1.57;;
60032;SDS011;45905;50.570;10.428;2023-11-18T05:56:23;3.73;;;2.90;;
60032;SDS011;45905;50.570;10.428;2023-11-18T05:58:51;3.27;;;1.80;;
60032;SDS011;45905;50.570;10.428;2023-11-18T06:01:20;6.43;;;3.77;;
60032;SDS011;45905;50.570;10.428;2023-11-18T06:03:48;3.77;;;2.63;;
60032;SDS011;45905;50.570;10.428;2023-11-18T06:06:17;1.07;;;0.90;;
60032;SDS011;45905;50.570;10.428;2023-11-18T06:08:49;1.87;;;1.20;;
60032;SDS011;45905;50.570;10.428;2023-11-18T06:11:18;3.67;;;2.60;;
60032;SDS011;45905;50.570;10.428;2023-11-18T06:13:47;3.23;;;1.73;;
60032;SDS011;45905;50.570;10.428;2023-11-18T06:16:17;1.30;;;1.00;;
60032;SDS011;45905;50.570;10.428;2023-11-18T06:18:49;4.00;;;2.93;;
60032;SDS011;45905;50.570;10.428;2023-11-18T06:21:19;2.47;;;1.77;;
60032;SDS011;45905;50.570;10.428;2023-11-18T06:23:51;1.93;;;1.73;;
60032;SDS011;45905;50.570;10.428;2023-11-18T06:26:22;3.83;;;2.60;;
60032;SDS011;45905;50.570;10.428;2023-11-18T06:28:53;1.07;;;0.90;;
60032;SDS011;45905;50.570;10.428;2023-11-18T06:31:22;2.43;;;2.23;;
60032;SDS011;45905;50.570;10.428;2023-11-18T06:33:50;4.37;;;2.80;;
60032;SDS011;45905;50.570;10.428;2023-11-18T06:36:19;4.40;;;2.77;;
60032;SDS011;45905;50.570;10.428;2023-11-18T06:38:49;1.37;;;1.27;;
60032;SDS011;45905;50.570;10.428;2023-11-18T06:41:18;4.03;;;3.50;;
60032;SDS011;45905;50.570;10.428;2023-11-18T06:43:59;2.90;;;2.30;;
60032;SDS011;45905;50.570;10.428;2023-11-18T06:46:35;2.50;;;2.03;;
60032;SDS011;45905;50.570;10.428;2023-11-18T06:49:07;2.03;;;1.67;;
60032;SDS011;45905;50.570;10.428;2023-11-18T06:51:37;2.60;;;2.03;;
60032;SDS011;45905;50.570;10.428;2023-11-18T06:54:05;2.90;;;1.93;;
60032;SDS011;45905;50.570;10.428;2023-11-18T06:56:38;5.10;;;2.80;;
60032;SDS011;45905;50.570;10.428;2023-11-18T06:59:11;1.80;;;1.10;;
60032;SDS011;45905;50.570;10.428;2023-11-18T07:01:42;5.30;;;1.80;;
60032;SDS011;45905;50.570;10.428;2023-11-18T07:04:12;2.50;;;2.03;;
60032;SDS011;45905;50.570;10.428;2023-11-18T07:06:42;2.17;;;1.97;;
60032;SDS011;45905;50.570;10.428;2023-11-18T07:09:10;1.60;;;1.20;;
60032;SDS011;45905;50.570;10.428;2023-11-18T07:11:47;2.80;;;2.30;;
60032;SDS011;45905;50.570;10.428;2023-11-18T07:14:15;0.93;;;0.80;;
60032;SDS011;45905;50.570;10.428;2023-11-18T07:16:43;0.90;;;0.80;;
60032;SDS011;45905;50.570;10.428;2023-11-18T07:19:11;4.60;;;2.80;;
60032;SDS011;45905;50.570;10.428;2023-11-18T07:21:48;2.37;;;1.73;;
60032;SDS011;45905;50.570;10.428;2023-11-18T07:24:17;1.47;;;1.23;;
60032;SDS011;45905;50.570;10.428;2023-11-18T07:26:47;3.47;;;2.73;;
60032;SDS011;45905;50.570;10.428;2023-11-18T07:29:15;13.83;;;4.60;;
60032;SDS011;45905;50.570;10.428;2023-11-18T07:31:43;4.13;;;3.00;;
60032;SDS011;45905;50.570;10.428;2023-11-18T07:34:12;3.60;;;3.07;;
60032;SDS011;45905;50.570;10.428;2023-11-18T07:36:39;2.40;;;2.20;;
60032;SDS011;45905;50.570;10.428;2023-11-18T07:39:07;1.63;;;1.20;;
60032;SDS011;45905;50.570;10.428;2023-11-18T07:41:42;3.70;;;3.00;;
60032;SDS011;45905;50.570;10.428;2023-11-18T07:44:11;2.30;;;1.90;;
60032;SDS011;45905;50.570;10.428;2023-11-18T07:46:39;1.30;;;1.20;;
60032;SDS011;45905;50.570;10.428;2023-11-18T07:49:09;6.10;;;4.70;;
60032;SDS011;45905;50.570;10.428;2023-11-18T07:51:38;2.97;;;2.17;;
60032;SDS011;45905;50.570;10.428;2023-11-18T07:54:07;2.40;;;1.77;;
60032;SDS011;45905;50.570;10.428;2023-11-18T07:56:36;13.97;;;6.37;;
60032;SDS011;45905;50.570;10.428;2023-11-18T07:59:04;3.63;;;2.80;;
60032;SDS011;45905;50.570;10.428;2023-11-18T08:01:35;7.97;;;2.90;;
60032;SDS011;45905;50.570;10.428;2023-11-18T08:04:02;3.33;;;2.47;;
60032;SDS011;45905;50.570;10.428;2023-11-18T08:06:33;2.93;;;2.70;;
60032;SDS011;45905;50.570;10.428;2023-11-18T08:09:00;2.60;;;2.40;;
60032;SDS011;45905;50.570;10.428;2023-11-18T08:11:29;4.60;;;2.87;;
60032;SDS011;45905;50.570;10.428;2023-11-18T08:13:56;1.40;;;1.30;;
60032;SDS011;45905;50.570;10.428;2023-11-18T08:16:24;3.33;;;3.03;;
60032;SDS011;45905;50.570;10.428;2023-11-18T08:18:52;1.43;;;1.23;;
60032;SDS011;45905;50.570;10.428;2023-11-18T08:21:20;3.40;;;2.30;;
60032;SDS011;45905;50.570;10.428;2023-11-18T08:23:48;4.67;;;3.03;;
60032;SDS011;45905;50.570;10.428;2023-11-18T08:26:17;3.90;;;1.37;;
60032;SDS011;45905;50.570;10.428;2023-11-18T08:28:45;5.83;;;2.53;;
60032;SDS011;45905;50.570;10.428;2023-11-18T08:31:13;4.33;;;3.07;;
60032;SDS011;45905;50.570;10.428;2023-11-18T08:33:42;1.77;;;1.67;;
60032;SDS011;45905;50.570;10.428;2023-11-18T08:36:10;3.63;;;2.97;;
60032;SDS011;45905;50.570;10.428;2023-11-18T08:38:39;2.37;;;2.20;;
60032;SDS011;45905;50.570;10.428;2023-11-18T08:41:06;2.20;;;2.00;;
60032;SDS011;45905;50.570;10.428;2023-11-18T08:43:35;3.97;;;3.30;;
60032;SDS011;45905;50.570;10.428;2023-11-18T08:46:03;2.17;;;2.00;;
60032;SDS011;45905;50.570;10.428;2023-11-18T08:48:31;1.87;;;1.77;;
60032;SDS011;45905;50.570;10.428;2023-11-18T08:51:00;5.40;;;4.03;;
60032;SDS011;45905;50.570;10.428;2023-11-18T08:53:28;1.63;;;1.53;;
60032;SDS011;45905;50.570;10.428;2023-11-18T08:55:55;3.70;;;3.33;;
60032;SDS011;45905;50.570;10.428;2023-11-18T08:58:23;3.73;;;3.50;;
60032;SDS011;45905;50.570;10.428;2023-11-18T09:01:00;2.90;;;2.60;;
60032;SDS011;45905;50.570;10.428;2023-11-18T09:03:33;2.70;;;1.93;;
60032;SDS011;45905;50.570;10.428;2023-11-18T09:06:05;4.17;;;3.77;;
60032;SDS011;45905;50.570;10.428;2023-11-18T09:08:45;4.27;;;3.90;;
60032;SDS011;45905;50.570;10.428;2023-11-18T09:11:23;3.53;;;2.93;;
60032;SDS011;45905;50.570;10.428;2023-11-18T09:13:55;7.23;;;6.63;;
60032;SDS011;45905;50.570;10.428;2023-11-18T09:16:28;2.73;;;2.40;;
60032;SDS011;45905;50.570;10.428;2023-11-18T09:18:57;4.33;;;4.03;;
60032;SDS011;45905;50.570;10.428;2023-11-18T09:21:29;5.57;;;3.87;;
60032;SDS011;45905;50.570;10.428;2023-11-18T09:24:02;6.40;;;5.90;;
60032;SDS011;45905;50.570;10.428;2023-11-18T09:26:34;3.70;;;2.87;;
60032;SDS011;45905;50.570;10.428;2023-11-18T09:29:02;3.50;;;3.20;;
60032;SDS011;45905;50.570;10.428;2023-11-18T09:31:29;5.30;;;4.80;;
60032;SDS011;45905;50.570;10.428;2023-11-18T09:34:00;1.33;;;1.23;;
60032;SDS011;45905;50.570;10.428;2023-11-18T09:36:27;3.43;;;3.03;;
60032;SDS011;45905;50.570;10.428;2023-11-18T09:38:55;1.60;;;1.50;;
60032;SDS011;45905;50.570;10.428;2023-11-18T09:41:23;3.80;;;3.50;;
60032;SDS011;45905;50.570;10.428;2023-11-18T09:43:54;5.53;;;4.20;;
60032;SDS011;45905;50.570;10.428;2023-11-18T09:46:24;2.53;;;2.03;;
60032;SDS011;45905;50.570;10.428;2023-11-18T09:52:02;3.63;;;2.93;;
60032;SDS011;45905;50.570;10.428;2023-11-18T09:57:25;7.10;;;5.67;;
60032;SDS011;45905;50.570;10.428;2023-11-18T10:00:07;4.53;;;3.00;;
60032;SDS011;45905;50.570;10.428;2023-11-18T10:02:48;1.53;;;1.43;;
60032;SDS011;45905;50.570;10.428;2023-11-18T10:05:19;5.73;;;5.23;;
60032;SDS011;45905;50.570;10.428;2023-11-18T10:07:49;3.17;;;2.90;;
60032;SDS011;45905;50.570;10.428;2023-11-18T10:10:17;1.67;;;1.10;;
60032;SDS011;45905;50.570;10.428;2023-11-18T10:12:48;5.13;;;3.37;;
60032;SDS011;45905;50.570;10.428;2023-11-18T10:15:24;9.63;;;6.50;;
60032;SDS011;45905;50.570;10.428;2023-11-18T10:17:53;5.13;;;2.80;;
60032;SDS011;45905;50.570;10.428;2023-11-18T10:23:14;5.90;;;5.10;;
60032;SDS011;45905;50.570;10.428;2023-11-18T10:25:55;2.17;;;1.97;;
60032;SDS011;45905;50.570;10.428;2023-11-18T10:30:59;11.40;;;5.80;;
60032;SDS011;45905;50.570;10.428;2023-11-18T10:33:32;4.60;;;3.53;;
60032;SDS011;45905;50.570;10.428;2023-11-18T10:36:19;6.43;;;4.97;;
60032;SDS011;45905;50.570;10.428;2023-11-18T10:38:51;5.43;;;3.40;;
60032;SDS011;45905;50.570;10.428;2023-11-18T10:41:23;9.50;;;5.60;;
60032;SDS011;45905;50.570;10.428;2023-11-18T10:44:04;5.73;;;4.23;;
60032;SDS011;45905;50.570;10.428;2023-11-18T10:46:34;5.60;;;4.57;;
60032;SDS011;45905;50.570;10.428;2023-11-18T10:49:02;3.63;;;3.33;;
60032;SDS011;45905;50.570;10.428;2023-11-18T10:51:36;6.33;;;3.93;;
60032;SDS011;45905;50.570;10.428;2023-11-18T10:54:05;10.23;;;5.93;;
60032;SDS011;45905;50.570;10.428;2023-11-18T10:56:45;7.57;;;5.17;;
60032;SDS011;45905;50.570;10.428;2023-11-18T10:59:16;7.87;;;4.17;;
60032;SDS011;45905;50.570;10.428;2023-11-18T11:01:45;8.23;;;4.73;;
60032;SDS011;45905;50.570;10.428;2023-11-18T11:04:16;10.93;;;5.50;;
60032;SDS011;45905;50.570;10.428;2023-11-18T11:06:47;8.30;;;5.07;;
60032;SDS011;45905;50.570;10.428;2023-11-18T11:09:20;13.07;;;6.43;;
60032;SDS011;45905;50.570;10.428;2023-11-18T11:11:55;24.73;;;7.73;;
60032;SDS011;45905;50.570;10.428;2023-11-18T11:14:34;12.27;;;7.63;;
60032;SDS011;45905;50.570;10.428;2023-11-18T11:17:13;19.73;;;8.83;;
60032;SDS011;45905;50.570;10.428;2023-11-18T11:28:46;6.90;;;5.37;;
60032;SDS011;45905;50.570;10.428;2023-11-18T11:31:30;10.30;;;4.83;;
60032;SDS011;45905;50.570;10.428;2023-11-18T11:34:06;8.73;;;4.47;;
60032;SDS011;45905;50.570;10.428;2023-11-18T11:36:47;7.73;;;5.83;;
60032;SDS011;45905;50.570;10.428;2023-11-18T11:39:18;8.10;;;5.23;;
60032;SDS011;45905;50.570;10.428;2023-11-18T11:41:52;10.70;;;6.30;;
60032;SDS011;45905;50.570;10.428;2023-11-18T11:44:26;7.67;;;6.10;;
60032;SDS011;45905;50.570;10.428;2023-11-18T11:46:58;6.07;;;4.97;;
60032;SDS011;45905;50.570;10.428;2023-11-18T11:49:33;4.20;;;3.77;;
60032;SDS011;45905;50.570;10.428;2023-11-18T11:52:18;12.50;;;8.17;;
60032;SDS011;45905;50.570;10.428;2023-11-18T11:55:05;8.00;;;6.70;;
60032;SDS011;45905;50.570;10.428;2023-11-18T11:57:39;6.33;;;5.57;;
60032;SDS011;45905;50.570;10.428;2023-11-18T12:00:09;10.27;;;8.93;;
60032;SDS011;45905;50.570;10.428;2023-11-18T12:02:50;5.80;;;4.87;;
60032;SDS011;45905;50.570;10.428;2023-11-18T12:05:25;8.90;;;5.57;;
60032;SDS011;45905;50.570;10.428;2023-11-18T12:07:54;6.67;;;5.43;;
60032;SDS011;45905;50.570;10.428;2023-11-18T12:10:31;11.90;;;8.10;;
60032;SDS011;45905;50.570;10.428;2023-11-18T12:13:09;7.53;;;6.37;;
60032;SDS011;45905;50.570;10.428;2023-11-18T12:15:52;9.70;;;7.80;;
60032;SDS011;45905;50.570;10.428;2023-11-18T12:18:24;10.67;;;7.80;;
60032;SDS011;45905;50.570;10.428;2023-11-18T12:20:52;4.17;;;3.77;;
60032;SDS011;45905;50.570;10.428;2023-11-18T12:23:24;8.37;;;5.67;;
60032;SDS011;45905;50.570;10.428;2023-11-18T12:25:52;13.50;;;10.30;;
60032;SDS011;45905;50.570;10.428;2023-11-18T12:28:29;16.20;;;8.33;;
60032;SDS011;45905;50.570;10.428;2023-11-18T12:31:03;11.13;;;8.83;;
60032;SDS011;45905;50.570;10.428;2023-11-18T12:36:40;11.73;;;9.73;;
60032;SDS011;45905;50.570;10.428;2023-11-18T12:43:34;19.80;;;9.73;;
60032;SDS011;45905;50.570;10.428;2023-11-18T12:49:22;18.43;;;9.57;;
60032;SDS011;45905;50.570;10.428;2023-11-18T12:51:52;4.23;;;3.80;;
60032;SDS011;45905;50.570;10.428;2023-11-18T12:54:26;8.23;;;4.50;;
60032;SDS011;45905;50.570;10.428;2023-11-18T12:56:55;23.93;;;11.27;;
60032;SDS011;45905;50.570;10.428;2023-11-18T12:59:22;9.50;;;5.90;;
60032;SDS011;45905;50.570;10.428;2023-11-18T13:01:50;9.40;;;6.03;;
60032;SDS011;45905;50.570;10.428;2023-11-18T13:04:24;25.93;;;11.40;;
60032;SDS011;45905;50.570;10.428;2023-11-18T13:06:54;10.17;;;6.40;;
60032;SDS011;45905;50.570;10.428;2023-11-18T13:09:22;15.43;;;6.67;;
60032;SDS011;45905;50.570;10.428;2023-11-18T13:11:56;10.80;;;7.10;;
60032;SDS011;45905;50.570;10.428;2023-11-18T13:14:31;13.67;;;8.23;;
60032;SDS011;45905;50.570;10.428;2023-11-18T13:17:09;8.70;;;6.73;;
60032;SDS011;45905;50.570;10.428;2023-11-18T13:19:44;12.40;;;8.17;;
60032;SDS011;45905;50.570;10.428;2023-11-18T13:22:14;8.67;;;7.67;;
60032;SDS011;45905;50.570;10.428;2023-11-18T13:24:45;8.43;;;4.00;;
60032;SDS011;45905;50.570;10.428;2023-11-18T13:27:14;15.30;;;6.60;;
60032;SDS011;45905;50.570;10.428;2023-11-18T13:29:49;15.77;;;10.97;;
60032;SDS011;45905;50.570;10.428;2023-11-18T13:32:18;17.77;;;8.67;;
60032;SDS011;45905;50.570;10.428;2023-11-18T13:34:50;9.87;;;5.83;;
60032;SDS011;45905;50.570;10.428;2023-11-18T13:37:18;12.80;;;9.40;;
60032;SDS011;45905;50.570;10.428;2023-11-18T13:39:53;16.77;;;10.03;;
60032;SDS011;45905;50.570;10.428;2023-11-18T13:42:27;5.87;;;5.40;;
60032;SDS011;45905;50.570;10.428;2023-11-18T13:45:08;9.30;;;3.87;;
60032;SDS011;45905;50.570;10.428;2023-11-18T13:48:01;9.13;;;4.10;;
60032;SDS011;45905;50.570;10.428;2023-11-18T13:50:29;16.53;;;8.00;;
60032;SDS011;45905;50.570;10.428;2023-11-18T13:52:57;4.17;;;3.77;;
60032;SDS011;45905;50.570;10.428;2023-11-18T13:55:24;6.80;;;5.90;;
60032;SDS011;45905;50.570;10.428;2023-11-18T13:57:54;15.50;;;10.73;;
60032;SDS011;45905;50.570;10.428;2023-11-18T14:00:25;5.53;;;4.83;;
60032;SDS011;45905;50.570;10.428;2023-11-18T14:02:57;4.73;;;4.20;;
60032;SDS011;45905;50.570;10.428;2023-11-18T14:05:32;14.80;;;6.70;;
60032;SDS011;45905;50.570;10.428;2023-11-18T14:08:00;13.27;;;8.63;;
60032;SDS011;45905;50.570;10.428;2023-11-18T14:10:36;6.53;;;5.17;;
60032;SDS011;45905;50.570;10.428;2023-11-18T14:13:08;6.67;;;5.40;;
60032;SDS011;45905;50.570;10.428;2023-11-18T14:15:43;9.93;;;7.50;;
60032;SDS011;45905;50.570;10.428;2023-11-18T14:18:11;8.63;;;6.97;;
60032;SDS011;45905;50.570;10.428;2023-11-18T14:20:41;8.40;;;6.70;;
60032;SDS011;45905;50.570;10.428;2023-11-18T14:23:08;10.83;;;9.73;;
60032;SDS011;45905;50.570;10.428;2023-11-18T14:25:36;9.60;;;8.77;;
60032;SDS011;45905;50.570;10.428;2023-11-18T14:28:04;7.90;;;5.70;;
60032;SDS011;45905;50.570;10.428;2023-11-18T14:30:35;12.53;;;8.63;;
60032;SDS011;45905;50.570;10.428;2023-11-18T14:33:02;6.00;;;4.83;;
60032;SDS011;45905;50.570;10.428;2023-11-18T14:35:30;11.20;;;5.03;;
60032;SDS011;45905;50.570;10.428;2023-11-18T14:37:58;9.67;;;7.70;;
60032;SDS011;45905;50.570;10.428;2023-11-18T14:40:27;8.50;;;4.50;;
60032;SDS011;45905;50.570;10.428;2023-11-18T14:42:55;19.10;;;9.57;;
60032;SDS011;45905;50.570;10.428;2023-11-18T14:45:23;16.77;;;7.53;;
60032;SDS011;45905;50.570;10.428;2023-11-18T14:47:50;13.90;;;6.37;;
60032;SDS011;45905;50.570;10.428;2023-11-18T14:50:20;8.63;;;6.87;;
60032;SDS011;45905;50.570;10.428;2023-11-18T14:52:50;9.23;;;6.57;;
60032;SDS011;45905;50.570;10.428;2023-11-18T14:55:20;5.30;;;4.90;;
60032;SDS011;45905;50.570;10.428;2023-11-18T14:57:48;11.50;;;4.60;;
60032;SDS011;45905;50.570;10.428;2023-11-18T15:00:16;5.33;;;4.50;;
60032;SDS011;45905;50.570;10.428;2023-11-18T15:02:53;11.83;;;3.40;;
60032;SDS011;45905;50.570;10.428;2023-11-18T15:05:25;14.87;;;4.70;;
60032;SDS011;45905;50.570;10.428;2023-11-18T15:07:55;9.43;;;7.90;;
60032;SDS011;45905;50.570;10.428;2023-11-18T15:10:25;32.63;;;9.13;;
60032;SDS011;45905;50.570;10.428;2023-11-18T15:12:55;10.83;;;3.37;;
60032;SDS011;45905;50.570;10.428;2023-11-18T15:15:26;7.43;;;5.20;;
60032;SDS011;45905;50.570;10.428;2023-11-18T15:17:59;11.50;;;7.20;;
60032;SDS011;45905;50.570;10.428;2023-11-18T15:20:35;13.20;;;8.00;;
60032;SDS011;45905;50.570;10.428;2023-11-18T15:23:03;12.37;;;6.27;;
60032;SDS011;45905;50.570;10.428;2023-11-18T15:25:31;10.40;;;6.87;;
60032;SDS011;45905;50.570;10.428;2023-11-18T15:28:00;22.70;;;8.90;;